»·PEaware :: N58NG KPSP-KIFP

N58NG :: KPSP-KIFP

FLIGHT INFORMATION

Flight Status: Arrived
Operator: Privately registered:
United States
More flights under this callsign
Pilot: Chris W. (15214)
Aircraft: PILATUS PC-12 EAGLE
(PC12)
More flights by this aircraft type
Origin: KPSP Palm Springs Intl
United States
Destination: KIFP Laughlin/Bullhead Intl
United States
More flights between these airports :: More routes between these airports
Route: TRM JOTNU ZELMA GFS LAKIY
File this flight plan on PilotEdge
Remarks:
Altitude:
(Current/Filed)
15,000ft
Speed:
(Current/Filed)
195kts
Departed: 27-Jul-18 12:20 PM
Arrived: 27-Jul-18 01:06 PM
Distance/Time
Traveled:
125nm/0:46
Distance/Time
To Go:
Arrived

Flight Plot

Page will automatically refresh every two minutes.

Flight plan parsing failed; only flown route is shown


Map Options




Map Legend


Flown Route
Filed Route
Departure Airport
Arrival Airport
Navaid (VOR, NDB)
Fix

Horizontal Profiles

Position Reports

Time Latitude Longitude Heading Altitude Ground
Speed
27-Jul-18 11:54 33.825661 -116.509813 1 426ft 0kts
27-Jul-18 11:55 33.825661 -116.509813 1 426ft 0kts
27-Jul-18 11:56 33.825661 -116.509813 1 426ft 0kts
27-Jul-18 11:57 33.825661 -116.509813 1 426ft 0kts
27-Jul-18 11:58 33.825661 -116.509813 1 426ft 0kts
27-Jul-18 11:59 33.825661 -116.509813 1 426ft 0kts
27-Jul-18 12:00 33.825661 -116.509813 1 426ft 0kts
27-Jul-18 12:01 33.825661 -116.509813 1 426ft 0kts
27-Jul-18 12:02 33.825661 -116.509813 1 426ft 0kts
27-Jul-18 12:03 33.825661 -116.509813 1 426ft 0kts
27-Jul-18 12:04 33.825661 -116.509813 1 426ft 0kts
27-Jul-18 12:05 33.825661 -116.509813 1 426ft 0kts
27-Jul-18 12:06 33.825661 -116.509813 1 426ft 0kts
27-Jul-18 12:07 33.825661 -116.509813 1 426ft 0kts
27-Jul-18 12:08 33.825661 -116.509813 1 426ft 0kts
27-Jul-18 12:09 33.825661 -116.509813 1 426ft 0kts
27-Jul-18 12:10 33.825661 -116.509813 1 426ft 0kts
27-Jul-18 12:11 33.825661 -116.509813 1 426ft 0kts
27-Jul-18 12:12 33.825661 -116.509813 1 426ft 0kts
27-Jul-18 12:13 33.825661 -116.509813 1 426ft 0kts
27-Jul-18 12:14 33.825661 -116.509813 1 426ft 0kts
27-Jul-18 12:15 33.825662 -116.509813 0 426ft 0kts
27-Jul-18 12:16 33.825662 -116.509813 0 426ft 0kts
27-Jul-18 12:17 33.825666 -116.509813 1 426ft 0kts
27-Jul-18 12:18 33.825475 -116.508775 109 426ft 11kts
27-Jul-18 12:19 33.823216 -116.503576 92 426ft 7kts
27-Jul-18 12:20 33.823313 -116.503090 65 426ft 8kts
27-Jul-18 12:21 33.837076 -116.514228 323 715ft 131kts
27-Jul-18 12:22 33.867645 -116.504485 87 2743ft 147kts
27-Jul-18 12:23 33.847670 -116.458780 120 4527ft 165kts
27-Jul-18 12:24 33.822920 -116.412583 120 6461ft 166kts
27-Jul-18 12:25 33.798238 -116.366137 120 8377ft 165kts
27-Jul-18 12:26 33.773874 -116.320921 134 10119ft 168kts
27-Jul-18 12:27 33.740493 -116.281379 141 11866ft 169kts
27-Jul-18 12:28 33.703973 -116.242399 139 12964ft 201kts
27-Jul-18 12:29 33.662967 -116.186793 110 12983ft 242kts
27-Jul-18 12:30 33.680412 -116.114042 40 14028ft 245kts
27-Jul-18 12:31 33.734394 -116.065735 38 14989ft 250kts
27-Jul-18 12:32 33.793178 -116.012938 38 14993ft 273kts
27-Jul-18 12:33 33.854873 -115.957351 38 14992ft 280kts
27-Jul-18 12:34 33.917460 -115.900963 38 14992ft 282kts
27-Jul-18 12:35 33.979767 -115.845146 38 15050ft 281kts
27-Jul-18 12:36 34.039594 -115.791104 38 15119ft 281kts
27-Jul-18 12:37 34.101593 -115.734906 38 15175ft 281kts
27-Jul-18 12:38 34.163901 -115.678319 38 15172ft 282kts
27-Jul-18 12:39 34.226445 -115.621414 38 15172ft 282kts
27-Jul-18 12:40 34.289065 -115.564329 38 15172ft 282kts
27-Jul-18 12:41 34.356792 -115.517146 20 15173ft 285kts
27-Jul-18 12:42 34.431387 -115.484711 20 15173ft 285kts
27-Jul-18 12:43 34.505718 -115.452389 20 15173ft 285kts
27-Jul-18 12:44 34.580335 -115.419834 20 15156ft 286kts
27-Jul-18 12:45 34.655426 -115.386994 20 15088ft 287kts
27-Jul-18 12:46 34.730537 -115.354087 20 15038ft 287kts
27-Jul-18 12:47 34.802487 -115.322520 21 15037ft 286kts
27-Jul-18 12:48 34.875972 -115.290213 21 15010ft 287kts
27-Jul-18 12:49 34.950716 -115.257271 19 15030ft 286kts
27-Jul-18 12:50 35.025366 -115.224323 18 15046ft 285kts
27-Jul-18 12:51 35.099855 -115.191373 18 15038ft 284kts
27-Jul-18 12:52 35.164396 -115.142601 31 15025ft 283kts
27-Jul-18 12:53 35.230697 -115.090294 31 14432ft 296kts
27-Jul-18 12:54 35.299567 -115.036032 31 12638ft 294kts
27-Jul-18 12:55 35.367692 -114.983195 31 10843ft 289kts
27-Jul-18 12:56 35.433765 -114.932067 31 9119ft 275kts
27-Jul-18 12:57 35.494881 -114.880274 53 9065ft 263kts
27-Jul-18 12:58 35.495324 -114.792648 99 8551ft 274kts
27-Jul-18 12:59 35.481762 -114.700322 101 7098ft 271kts
27-Jul-18 13:00 35.433739 -114.640167 157 5590ft 253kts
27-Jul-18 13:01 35.372127 -114.607147 158 4577ft 240kts
27-Jul-18 13:02 35.311162 -114.574530 159 3357ft 235kts
27-Jul-18 13:03 35.254177 -114.566815 178 2791ft 173kts
27-Jul-18 13:04 35.219258 -114.564232 179 1918ft 87kts
27-Jul-18 13:05 35.192653 -114.562062 179 1267ft 99kts
27-Jul-18 13:06 35.165932 -114.560146 179 717ft 91kts
27-Jul-18 13:07 35.155916 -114.558309 91 698ft 0kts
27-Jul-18 13:08 35.155916 -114.558309 91 698ft 0kts
27-Jul-18 13:09 35.158707 -114.558248 354 698ft 15kts
27-Jul-18 13:10 35.161030 -114.557074 350 698ft 13kts
27-Jul-18 13:11 35.161543 -114.557146 356 698ft 0kts
27-Jul-18 13:12 35.161543 -114.557146 356 698ft 0kts
27-Jul-18 13:13 35.161543 -114.557146 356 698ft 0kts
27-Jul-18 13:14 35.161543 -114.557146 356 698ft 0kts
27-Jul-18 13:15 35.161543 -114.557146 356 698ft 0kts
27-Jul-18 13:16 35.161543 -114.557146 356 698ft 0kts
27-Jul-18 13:17 35.161543 -114.557146 356 698ft 0kts
27-Jul-18 13:18 35.161543 -114.557146 356 698ft 0kts
27-Jul-18 13:19 35.161543 -114.557146 356 698ft 0kts
27-Jul-18 13:20 35.161543 -114.557146 356 698ft 0kts
27-Jul-18 13:21 35.161543 -114.557146 356 698ft 0kts

Navigation Log

Ident Type
Flight plan parsing failed, navigation log unavailable